Time;durP1;ratioP1;P1;durP2;ratioP2;P2;SDS_P1;SDS_P2;PMS_P1;PMS_P2;Temp;Humidity;BMP_temperature;BMP_pressure;BME280_temperature;BME280_humidity;BME280_pressure;Samples;Min_cycle;Max_cycle;Signal;HPM_P1;HPM_P2
2021/04/05 00:00:28;;;;;;;13.25;3.60;;;25.50;83.50;;;;;;5074362;28;20020;-62
2021/04/05 00:02:57;;;;;;;10.32;3.40;;;25.70;83.20;;;;;;5074662;28;20023;-57
2021/04/05 00:05:32;;;;;;;15.02;4.18;;;25.80;83.40;;;;;;5074678;28;20399;-58
2021/04/05 00:08:00;;;;;;;12.25;3.40;;;25.80;83.50;;;;;;5073581;28;20054;-62
2021/04/05 00:10:44;;;;;;;16.58;4.35;;;25.80;83.70;;;;;;5062982;28;20447;-63
2021/04/05 00:13:16;;;;;;;27.50;5.13;;;25.90;83.70;;;;;;5070722;28;20103;-65
2021/04/05 00:15:43;;;;;;;;;;;26.10;83.70;;;;;;5072888;28;20020;-63
2021/04/05 00:18:11;;;;;;;12.80;3.47;;;26.20;83.00;;;;;;5072433;28;19983;-65
2021/04/05 00:20:45;;;;;;;13.63;3.92;;;26.20;82.70;;;;;;5069926;28;20125;-64
2021/04/05 00:23:13;;;;;;;15.48;4.35;;;26.30;82.90;;;;;;5072192;28;20016;-62
2021/04/05 00:25:40;;;;;;;17.67;4.20;;;26.40;83.30;;;;;;5072752;28;20123;-65
2021/04/05 00:28:08;;;;;;;18.13;3.92;;;26.40;82.70;;;;;;5071975;28;20017;-58
2021/04/05 00:30:37;;;;;;;14.75;5.07;;;26.50;82.60;;;;;;5067034;28;20025;-59
2021/04/05 00:33:05;;;;;;;14.68;4.32;;;26.40;81.70;;;;;;5068871;28;20027;-66
2021/04/05 00:35:35;;;;;;;10.88;3.50;;;26.40;82.60;;;;;;5071113;28;20024;-63
2021/04/05 00:38:07;;;;;;;12.80;3.90;;;26.40;82.80;;;;;;5070798;28;20033;-66
2021/04/05 00:40:37;;;;;;;12.98;3.72;;;26.40;83.00;;;;;;5065050;28;20021;-66
2021/04/05 00:43:07;;;;;;;14.85;4.05;;;26.50;83.40;;;;;;5070624;28;20032;-62
2021/04/05 00:45:35;;;;;;;13.25;4.35;;;26.70;83.00;;;;;;5070903;28;20037;-65
2021/04/05 00:48:04;;;;;;;13.73;4.15;;;26.70;82.30;;;;;;5071970;28;20028;-66
2021/04/05 00:50:39;;;;;;;15.10;3.97;;;26.70;82.00;;;;;;5069005;28;20030;-67
2021/04/05 00:53:08;;;;;;;13.00;3.72;;;26.60;82.00;;;;;;5070392;28;20036;-69
2021/04/05 00:55:36;;;;;;;13.02;3.70;;;26.70;81.00;;;;;;5072156;28;20090;-66
2021/04/05 00:58:05;;;;;;;12.27;4.05;;;26.70;82.20;;;;;;5072145;28;20032;-60
2021/04/05 01:00:42;;;;;;;12.90;3.83;;;26.70;82.60;;;;;;5071999;28;20028;-64
2021/04/05 01:03:18;;;;;;;15.95;5.22;;;26.40;83.30;;;;;;5072483;28;20056;-60
2021/04/05 01:05:51;;;;;;;19.30;4.38;;;26.30;85.10;;;;;;5073040;28;20039;-66
2021/04/05 01:08:19;;;;;;;12.00;4.25;;;26.20;85.40;;;;;;5090130;28;20036;-62
2021/04/05 01:10:47;;;;;;;7.78;3.63;;;26.20;85.50;;;;;;5074240;28;20032;-66
2021/04/05 01:13:15;;;;;;;11.88;3.58;;;26.20;85.60;;;;;;5093213;28;20099;-65
2021/04/05 01:15:43;;;;;;;13.43;4.00;;;26.20;86.30;;;;;;5093113;28;20088;-68
2021/04/05 01:18:13;;;;;;;8.18;3.38;;;26.10;86.00;;;;;;5093492;28;20111;-65
2021/04/05 01:20:40;;;;;;;10.88;3.70;;;26.10;86.70;;;;;;5092858;28;20034;-67
2021/04/05 01:23:07;;;;;;;9.70;3.25;;;26.10;85.90;;;;;;5093110;28;20024;-66
2021/04/05 01:25:35;;;;;;;9.20;3.08;;;26.30;85.60;;;;;;5075361;28;20122;-63
2021/04/05 01:28:02;;;;;;;8.50;3.85;;;26.30;84.90;;;;;;5093593;28;20053;-67
2021/04/05 01:30:41;;;;;;;6.93;2.83;;;26.40;85.10;;;;;;5092831;28;20116;-67
2021/04/05 01:33:13;;;;;;;12.02;3.22;;;26.60;84.30;;;;;;5093257;28;20467;-64
2021/04/05 01:35:53;;;;;;;9.23;3.20;;;26.60;85.20;;;;;;5093163;28;20096;-62
2021/04/05 01:38:27;;;;;;;10.55;4.22;;;26.50;85.00;;;;;;5093249;28;20020;-62
2021/04/05 01:40:58;;;;;;;7.07;3.13;;;26.50;85.10;;;;;;5093439;28;20081;-67
2021/04/05 01:43:25;;;;;;;10.17;3.50;;;26.60;84.80;;;;;;5092561;28;20020;-67
2021/04/05 01:45:57;;;;;;;9.30;2.67;;;26.70;83.60;;;;;;5092973;28;20284;-67
2021/04/05 01:48:27;;;;;;;12.50;4.05;;;26.70;84.90;;;;;;5093075;28;20020;-67
2021/04/05 01:51:11;;;;;;;11.15;3.72;;;26.70;83.80;;;;;;5092626;28;20024;-62
2021/04/05 01:53:40;;;;;;;7.70;3.03;;;26.90;83.70;;;;;;5092844;28;20028;-66
2021/04/05 01:56:10;;;;;;;14.23;3.33;;;26.90;83.70;;;;;;5092807;28;20474;-63
2021/04/05 01:58:39;;;;;;;13.38;4.28;;;27.00;82.80;;;;;;5092632;28;20467;-67
2021/04/05 02:01:10;;;;;;;10.57;3.03;;;27.10;82.80;;;;;;5092886;28;20031;-65
2021/04/05 02:03:39;;;;;;;9.63;3.08;;;27.10;83.70;;;;;;5093183;28;20024;-60
2021/04/05 02:06:13;;;;;;;7.75;3.35;;;27.10;83.70;;;;;;5092708;28;20051;-65
2021/04/05 02:08:42;;;;;;;7.18;2.88;;;27.10;81.40;;;;;;5091577;28;20106;-67
2021/04/05 02:11:16;;;;;;;6.88;2.55;;;27.10;83.40;;;;;;5091944;28;20035;-67
2021/04/05 02:13:50;;;;;;;7.68;2.90;;;27.10;81.90;;;;;;5091776;28;20601;-65
2021/04/05 02:16:19;;;;;;;5.68;3.28;;;27.20;82.20;;;;;;5091988;28;20445;-68
2021/04/05 02:18:48;;;;;;;10.60;3.10;;;27.20;82.30;;;;;;5091654;28;20031;-63
2021/04/05 02:21:18;;;;;;;7.13;3.33;;;27.20;82.10;;;;;;5091284;28;20485;-65
2021/04/05 02:23:51;;;;;;;6.72;2.55;;;27.10;82.00;;;;;;5091441;28;20107;-63
2021/04/05 02:26:24;;;;;;;7.13;2.53;;;27.10;82.20;;;;;;5091519;28;20495;-65
2021/04/05 02:28:59;;;;;;;6.05;3.08;;;27.10;82.70;;;;;;5091398;28;20057;-60
2021/04/05 02:31:29;;;;;;;6.43;2.85;;;27.00;82.30;;;;;;5091448;28;20107;-63
2021/04/05 02:33:58;;;;;;;7.90;2.92;;;27.00;82.30;;;;;;5091756;28;20145;-64
2021/04/05 02:36:31;;;;;;;6.80;2.80;;;27.00;83.00;;;;;;5091394;28;20028;-64
2021/04/05 02:39:01;;;;;;;4.95;2.53;;;26.90;83.00;;;;;;5091295;28;20043;-64
2021/04/05 02:41:31;;;;;;;5.57;2.83;;;26.70;84.80;;;;;;5090523;28;20048;-64
2021/04/05 02:43:59;;;;;;;10.35;2.90;;;26.70;84.20;;;;;;5091209;28;20479;-59
2021/04/05 02:46:29;;;;;;;6.45;2.60;;;26.60;84.00;;;;;;5091417;28;20067;-58
2021/04/05 02:48:59;;;;;;;7.70;2.60;;;26.50;85.50;;;;;;5091483;28;20095;-62
2021/04/05 02:51:27;;;;;;;7.28;2.85;;;26.50;85.00;;;;;;5091320;28;20024;-66
2021/04/05 02:53:58;;;;;;;8.32;2.78;;;26.40;86.10;;;;;;5090218;28;20024;-64
2021/04/05 02:56:26;;;;;;;7.75;2.92;;;26.50;85.20;;;;;;5091233;28;20020;-64
2021/04/05 02:58:56;;;;;;;7.53;3.00;;;26.40;85.00;;;;;;5091551;28;20027;-67
2021/04/05 03:01:26;;;;;;;7.40;3.35;;;26.40;85.30;;;;;;5091035;28;20016;-63
2021/04/05 03:03:56;;;;;;;10.32;3.33;;;26.30;86.30;;;;;;5091201;28;20526;-65
2021/04/05 03:06:25;;;;;;;8.93;2.53;;;26.30;86.50;;;;;;5009974;28;2308720;-66
2021/04/05 03:08:52;;;;;;;5.03;2.60;;;26.20;85.70;;;;;;5091664;28;20074;-64
2021/04/05 03:11:22;;;;;;;4.57;2.40;;;26.20;87.50;;;;;;5091076;28;20028;-64
2021/04/05 03:13:50;;;;;;;5.82;2.83;;;26.10;87.00;;;;;;5091541;28;20020;-63
2021/04/05 03:16:24;;;;;;;7.47;3.72;;;26.20;87.00;;;;;;5091754;28;20028;-63
2021/04/05 03:18:53;;;;;;;5.80;2.83;;;26.10;87.20;;;;;;5091436;28;20031;-65
2021/04/05 03:21:23;;;;;;;10.23;3.25;;;26.00;87.20;;;;;;5091624;28;20482;-62
2021/04/05 03:23:52;;;;;;;7.28;2.92;;;26.20;85.60;;;;;;5091376;28;20159;-67
2021/04/05 03:26:19;;;;;;;7.57;2.58;;;26.20;86.40;;;;;;5073302;28;20040;-66
2021/04/05 03:28:47;;;;;;;4.80;2.50;;;26.20;85.40;;;;;;5091638;28;20100;-66
2021/04/05 03:31:19;;;;;;;5.28;2.35;;;26.30;86.70;;;;;;5091764;28;20103;-65
2021/04/05 03:33:57;;;;;;;6.22;2.65;;;26.30;86.80;;;;;;5091707;28;20024;-65
2021/04/05 03:36:33;;;;;;;6.45;2.70;;;26.40;86.30;;;;;;5073832;28;20028;-64
2021/04/05 03:39:01;;;;;;;6.38;2.47;;;26.50;85.70;;;;;;5073654;28;20103;-64
2021/04/05 03:41:35;;;;;;;4.50;2.67;;;26.50;85.50;;;;;;5091205;28;20048;-65
2021/04/05 03:44:28;;;;;;;6.65;2.63;;;26.60;85.10;;;;;;5091741;28;20118;-67
2021/04/05 03:47:02;;;;;;;5.60;2.47;;;26.60;84.30;;;;;;5083219;28;20067;-65
2021/04/05 03:49:37;;;;;;;6.53;2.72;;;26.60;85.10;;;;;;5091721;28;20032;-64
2021/04/05 03:52:31;;;;;;;5.82;2.67;;;26.60;85.30;;;;;;5091213;28;20051;-65
2021/04/05 03:55:08;;;;;;;5.00;2.40;;;26.50;85.80;;;;;;5091208;28;20069;-60
2021/04/05 03:57:42;;;;;;;5.07;2.72;;;26.40;85.40;;;;;;5073263;28;20031;-59
2021/04/05 04:00:11;;;;;;;5.05;2.35;;;26.40;86.20;;;;;;5071208;28;20111;-62
2021/04/05 04:02:48;;;;;;;4.43;1.92;;;26.40;85.60;;;;;;5070924;28;20021;-64
2021/04/05 04:05:23;;;;;;;5.05;2.38;;;26.40;86.30;;;;;;5070166;28;20111;-64
2021/04/05 04:10:22;;;;;;;5.20;2.00;;;26.40;86.10;;;;;;5074676;28;20082;-62
2021/04/05 04:12:50;;;;;;;4.25;2.53;;;26.40;86.30;;;;;;5074172;28;20031;-66
2021/04/05 04:15:18;;;;;;;4.72;2.63;;;26.40;86.30;;;;;;5074540;28;20028;-62
2021/04/05 04:17:47;;;;;;;5.47;2.70;;;26.50;86.00;;;;;;5074549;28;20017;-66
2021/04/05 04:20:16;;;;;;;3.70;2.13;;;26.50;86.00;;;;;;5074604;28;20360;-64
2021/04/05 04:22:48;;;;;;;5.47;1.98;;;26.60;85.20;;;;;;5073939;28;20058;-65
2021/04/05 04:25:16;;;;;;;4.40;2.28;;;26.70;85.30;;;;;;5074253;28;20032;-65
2021/04/05 04:27:47;;;;;;;4.07;2.33;;;26.70;85.60;;;;;;5074515;28;20394;-65
2021/04/05 04:30:33;;;;;;;4.88;2.25;;;26.70;85.50;;;;;;5087732;28;20037;-60
2021/04/05 04:33:04;;;;;;;4.13;2.28;;;26.70;85.40;;;;;;5074263;28;20043;-62
2021/04/05 04:35:32;;;;;;;3.75;2.40;;;26.80;84.20;;;;;;5074256;28;20032;-63
2021/04/05 04:38:01;;;;;;;8.05;2.17;;;26.90;84.80;;;;;;5074103;28;20021;-67
2021/04/05 04:40:30;;;;;;;4.25;1.88;;;26.90;83.80;;;;;;5073555;28;20424;-64
2021/04/05 04:43:00;;;;;;;11.55;2.42;;;27.10;83.90;;;;;;5074065;28;20104;-61
2021/04/05 04:45:28;;;;;;;4.20;2.33;;;27.10;82.90;;;;;;5074005;28;20479;-62
2021/04/05 04:47:56;;;;;;;4.22;2.00;;;27.10;83.50;;;;;;5074121;28;20074;-63
2021/04/05 04:50:26;;;;;;;5.15;2.03;;;27.10;83.10;;;;;;5072824;28;20032;-65
2021/04/05 04:52:55;;;;;;;4.35;2.22;;;27.10;83.00;;;;;;5073936;28;20359;-63
2021/04/05 04:55:23;;;;;;;3.42;2.00;;;27.10;82.70;;;;;;5074072;28;20047;-60
2021/04/05 04:58:01;;;;;;;4.35;2.13;;;27.10;83.00;;;;;;5073844;28;20062;-61
2021/04/05 05:00:31;;;;;;;2.05;1.67;;;27.20;82.70;;;;;;5073384;28;20047;-64
2021/04/05 05:03:01;;;;;;;2.25;1.70;;;27.10;83.30;;;;;;5073984;28;20047;-65
2021/04/05 05:05:33;;;;;;;4.63;2.10;;;27.20;83.30;;;;;;5073863;28;20032;-65
2021/04/05 05:08:01;;;;;;;3.65;1.88;;;27.20;82.70;;;;;;5088364;28;20521;-66
2021/04/05 05:10:28;;;;;;;3.47;2.03;;;27.20;83.20;;;;;;5093268;28;20024;-64
2021/04/05 05:12:57;;;;;;;5.57;2.15;;;27.30;82.30;;;;;;5093731;28;20028;-62
2021/04/05 05:15:25;;;;;;;3.55;2.30;;;27.40;82.20;;;;;;5093708;28;20181;-66
2021/04/05 05:17:52;;;;;;;3.55;2.42;;;27.30;82.00;;;;;;5092775;28;20031;-65
2021/04/05 05:20:20;;;;;;;3.08;1.92;;;27.30;82.40;;;;;;5093582;28;20360;-65
2021/04/05 05:22:54;;;;;;;3.42;1.95;;;27.30;82.30;;;;;;5093254;28;20221;-62
2021/04/05 05:25:24;;;;;;;4.28;2.17;;;27.40;81.80;;;;;;5093525;28;20442;-64
2021/04/05 05:28:00;;;;;;;6.20;2.00;;;27.50;82.00;;;;;;5093775;28;20023;-63
2021/04/05 05:30:29;;;;;;;2.55;1.58;;;27.60;81.20;;;;;;5093337;28;20374;-62
2021/04/05 05:32:59;;;;;;;5.63;1.98;;;27.50;82.20;;;;;;5093473;28;20035;-63
2021/04/05 05:35:27;;;;;;;5.38;2.30;;;27.60;82.00;;;;;;5093376;28;20024;-59
2021/04/05 05:38:01;;;;;;;4.25;1.83;;;27.50;81.70;;;;;;5093055;28;20028;-64
2021/04/05 05:40:30;;;;;;;2.88;1.75;;;27.60;80.70;;;;;;5092864;28;20070;-64
2021/04/05 05:43:29;;;;;;;2.97;1.75;;;27.60;81.40;;;;;;5093250;28;20059;-64
2021/04/05 05:46:37;;;;;;;5.38;2.25;;;27.60;81.60;;;;;;5093173;28;20089;-66
2021/04/05 05:49:36;;;;;;;3.05;1.90;;;27.60;80.70;;;;;;5093006;28;20043;-65
2021/04/05 05:52:16;;;;;;;5.40;1.73;;;27.60;80.70;;;;;;5092858;28;20595;-63
2021/04/05 05:54:46;;;;;;;2.25;1.70;;;27.60;81.20;;;;;;5093126;28;20141;-65
2021/04/05 05:57:33;;;;;;;2.70;1.40;;;27.50;81.50;;;;;;5093019;28;20016;-67
2021/04/05 06:00:39;;;;;;;4.50;2.38;;;27.60;80.10;;;;;;5092565;28;20059;-66
2021/04/05 06:03:18;;;;;;;3.70;1.90;;;27.60;81.30;;;;;;5010638;28;20076;-57
2021/04/05 06:06:10;;;;;;;3.95;1.80;;;27.40;81.70;;;;;;5010535;28;20034;-64
2021/04/05 06:09:01;;;;;;;2.72;1.83;;;27.30;82.00;;;;;;5049454;28;20036;-60
2021/04/05 06:11:41;;;;;;;3.70;1.92;;;27.30;82.50;;;;;;5072284;28;20032;-66
2021/04/05 06:14:33;;;;;;;4.07;2.20;;;27.20;82.40;;;;;;5072375;28;20439;-64
2021/04/05 06:17:18;;;;;;;3.90;1.60;;;27.20;82.70;;;;;;5072338;28;20025;-64
2021/04/05 06:19:58;;;;;;;3.58;2.00;;;27.10;83.10;;;;;;5072400;28;20025;-64
2021/04/05 06:22:59;;;;;;;2.92;1.80;;;27.20;82.90;;;;;;5071926;28;20067;-68
2021/04/05 06:25:47;;;;;;;3.33;1.80;;;27.10;83.10;;;;;;5072293;28;20029;-65
2021/04/05 06:28:41;;;;;;;3.35;1.98;;;27.00;81.70;;;;;;5071927;28;20032;-64
2021/04/05 06:31:14;;;;;;;2.95;1.90;;;27.00;82.40;;;;;;5071988;28;20123;-66
2021/04/05 06:33:49;;;;;;;3.08;1.65;;;27.00;83.10;;;;;;5072324;28;20025;-67
2021/04/05 06:36:38;;;;;;;3.03;1.88;;;26.90;83.40;;;;;;5071570;28;20027;-63
2021/04/05 06:39:09;;;;;;;2.35;1.75;;;26.80;83.70;;;;;;5072465;28;20116;-64
2021/04/05 06:41:36;;;;;;;2.50;1.85;;;26.90;83.00;;;;;;5071498;28;20028;-64
2021/04/05 06:44:28;;;;;;;3.35;1.95;;;26.80;83.90;;;;;;5072045;28;20035;-64
2021/04/05 06:47:01;;;;;;;5.78;2.15;;;26.80;83.90;;;;;;5071918;28;20063;-66
2021/04/05 06:50:00;;;;;;;2.45;1.55;;;26.80;83.60;;;;;;5071694;28;20112;-62
2021/04/05 06:52:55;;;;;;;6.40;1.88;;;26.70;84.20;;;;;;5040199;28;20036;-65
2021/04/05 06:55:41;;;;;;;3.53;1.80;;;26.70;83.50;;;;;;5071868;28;20024;-62
2021/04/05 06:58:26;;;;;;;3.88;1.85;;;26.70;84.20;;;;;;5067630;28;20040;-65
2021/04/05 07:01:21;;;;;;;2.28;1.58;;;26.70;84.30;;;;;;5071287;28;20029;-64
2021/04/05 07:04:25;;;;;;;3.97;1.67;;;26.60;84.50;;;;;;5070414;28;20021;-58
2021/04/05 07:07:13;;;;;;;2.03;1.83;;;26.60;84.20;;;;;;5070227;28;20044;-62
2021/04/05 07:09:50;;;;;;;2.97;1.75;;;26.60;84.50;;;;;;5071851;28;20021;-65
2021/04/05 07:12:36;;;;;;;5.20;2.22;;;26.60;83.30;;;;;;5071393;28;20059;-64
2021/04/05 07:15:15;;;;;;;3.88;1.90;;;26.50;82.90;;;;;;5071421;28;20024;-65
2021/04/05 07:17:59;;;;;;;4.15;1.70;;;26.50;84.60;;;;;;5071621;28;20497;-67
2021/04/05 07:20:37;;;;;;;3.85;1.85;;;26.40;84.70;;;;;;5071625;28;20028;-64
2021/04/05 07:23:38;;;;;;;2.25;1.80;;;26.30;84.90;;;;;;5071281;28;20066;-65
2021/04/05 07:26:14;;;;;;;3.78;2.08;;;26.20;84.10;;;;;;5071830;28;20052;-66
2021/04/05 07:29:21;;;;;;;2.92;1.73;;;26.20;84.90;;;;;;5071774;28;20021;-62
2021/04/05 07:32:27;;;;;;;2.15;1.83;;;26.10;85.00;;;;;;5071481;28;20103;-59
2021/04/05 07:35:14;;;;;;;3.35;1.92;;;25.90;85.80;;;;;;5071968;28;20017;-67
2021/04/05 07:38:17;;;;;;;5.00;1.95;;;25.80;86.70;;;;;;5071446;28;20389;-66
2021/04/05 07:41:18;;;;;;;3.50;1.85;;;25.80;86.30;;;;;;5072311;28;20017;-64
2021/04/05 07:44:03;;;;;;;3.90;1.88;;;25.60;86.70;;;;;;5075399;28;20395;-63
2021/04/05 07:46:50;;;;;;;2.90;1.90;;;25.60;87.20;;;;;;5074850;28;20186;-62
2021/04/05 07:49:32;;;;;;;2.35;1.60;;;25.50;87.50;;;;;;5075523;28;20379;-63
2021/04/05 07:52:21;;;;;;;6.00;2.20;;;25.40;87.10;;;;;;5074996;28;20025;-64
2021/04/05 07:54:51;;;;;;;2.85;1.85;;;25.40;87.60;;;;;;5074982;28;20036;-65
2021/04/05 07:57:40;;;;;;;3.63;2.42;;;25.30;87.90;;;;;;5075121;28;20123;-63
2021/04/05 08:00:12;;;;;;;6.40;2.00;;;25.30;88.30;;;;;;5061900;28;20021;-65
2021/04/05 08:02:56;;;;;;;4.90;1.90;;;25.20;87.80;;;;;;5072821;28;20032;-65
2021/04/05 08:05:50;;;;;;;3.50;2.00;;;25.20;87.30;;;;;;5056640;28;20043;-63
2021/04/05 08:08:47;;;;;;;4.15;2.10;;;25.20;88.20;;;;;;5067988;28;20114;-68
2021/04/05 08:11:43;;;;;;;2.30;1.65;;;25.20;87.70;;;;;;5067578;28;20017;-62
2021/04/05 08:14:31;;;;;;;2.88;1.90;;;25.20;88.20;;;;;;5071742;28;20112;-53
2021/04/05 08:16:59;;;;;;;5.68;2.33;;;25.20;88.60;;;;;;5071715;28;20032;-62
2021/04/05 08:19:35;;;;;;;4.22;2.15;;;25.20;88.20;;;;;;5068641;28;20056;-65
2021/04/05 08:22:13;;;;;;;8.30;7.50;;;25.10;87.70;;;;;;5054079;28;20477;-63
2021/04/05 08:24:51;;;;;;;4.32;2.30;;;25.10;88.40;;;;;;5070959;28;20039;-66
2021/04/05 08:27:32;;;;;;;5.05;2.20;;;25.10;88.40;;;;;;5073193;28;20028;-65
2021/04/05 08:30:11;;;;;;;3.72;2.00;;;25.10;88.70;;;;;;5066650;28;20095;-65
2021/04/05 08:32:58;;;;;;;4.47;1.98;;;25.00;88.70;;;;;;5070929;28;20439;-68
2021/04/05 08:35:55;;;;;;;3.40;2.00;;;25.00;88.90;;;;;;5072660;28;20024;-60
2021/04/05 08:38:51;;;;;;;3.53;1.70;;;24.90;88.70;;;;;;5073209;28;20471;-62
2021/04/05 08:41:47;;;;;;;3.33;1.80;;;24.90;89.20;;;;;;5066920;28;20115;-60
2021/04/05 08:44:33;;;;;;;5.85;2.30;;;24.90;89.20;;;;;;5065297;28;20032;-62
2021/04/05 08:47:13;;;;;;;4.82;2.20;;;24.90;88.30;;;;;;5068908;28;20070;-63
2021/04/05 08:49:57;;;;;;;4.55;2.13;;;24.90;88.70;;;;;;5061731;28;20025;-57
2021/04/05 08:52:37;;;;;;;6.43;2.33;;;24.90;89.20;;;;;;5072710;28;20020;-64
2021/04/05 08:55:06;;;;;;;2.88;2.00;;;24.90;88.70;;;;;;5069727;28;20517;-63
2021/04/05 08:58:07;;;;;;;5.15;2.38;;;24.90;88.90;;;;;;5069970;28;20151;-67
2021/04/05 09:00:41;;;;;;;2.22;1.83;;;24.80;88.60;;;;;;5064090;28;20086;-65
2021/04/05 09:09:35;;;;;;;5.20;2.28;;;24.80;88.90;;;;;;5060374;28;20188;-62
2021/04/05 09:12:13;;;;;;;8.25;2.28;;;24.80;88.70;;;;;;5068396;28;20162;-58
2021/04/05 09:15:15;;;;;;;8.70;2.78;;;24.70;89.00;;;;;;5057629;28;20111;-67
2021/04/05 09:18:52;;;;;;;4.78;2.50;;;24.70;89.00;;;;;;5069996;28;20044;-67
2021/04/05 09:22:10;;;;;;;6.95;2.75;;;24.70;89.30;;;;;;4969934;28;20047;-62
2021/04/05 09:25:14;;;;;;;9.77;2.85;;;24.70;89.40;;;;;;4992155;28;20437;-63
2021/04/05 09:34:34;;;;;;;2.88;1.83;;;24.70;89.60;;;;;;5070004;28;20032;-54
2021/04/05 09:37:35;;;;;;;3.90;1.90;;;24.60;89.50;;;;;;5071305;28;20039;-60
2021/04/05 09:40:56;;;;;;;6.18;2.67;;;24.60;89.50;;;;;;5064940;28;20036;-59
2021/04/05 09:43:59;;;;;;;5.00;2.10;;;24.60;89.60;;;;;;5009428;28;20528;-62
2021/04/05 09:46:57;;;;;;;4.32;1.98;;;24.60;89.80;;;;;;5009881;28;20042;-53
2021/04/05 09:50:01;;;;;;;4.20;2.20;;;24.60;89.90;;;;;;5005522;28;20037;-53
2021/04/05 09:53:04;;;;;;;9.13;3.30;;;24.60;89.80;;;;;;4988419;28;20452;-61
2021/04/05 09:56:47;;;;;;;4.75;2.20;;;24.50;89.80;;;;;;5011314;28;20033;-68
2021/04/05 10:00:31;;;;;;;;;;;;;;;;;;;;;
2021/04/05 10:03:45;;;;;;;4.60;2.47;;;24.50;89.90;;;;;;4908790;29;20032;-59
2021/04/05 10:10:13;;;;;;;4.20;2.25;;;24.50;89.90;;;;;;4874659;29;20064;-63
2021/04/05 10:39:35;;;;;;;5.80;2.50;;;24.30;90.10;;;;;;5821222;23;21870;-63
2021/04/05 10:42:13;;;;;;;3.38;2.00;;;24.30;90.10;;;;;;5101550;23;20671;-66
2021/04/05 10:44:45;;;;;;;3.90;2.40;;;24.30;90.10;;;;;;5008652;28;20614;-64
2021/04/05 10:47:22;;;;;;;5.65;2.38;;;24.30;90.10;;;;;;5021562;28;20072;-64
2021/04/05 10:49:54;;;;;;;6.55;2.33;;;24.30;90.10;;;;;;5018840;28;20518;-65
2021/04/05 10:52:29;;;;;;;6.05;3.05;;;24.20;90.10;;;;;;5016671;28;20633;-58
2021/04/05 10:54:58;;;;;;;5.93;2.65;;;24.20;90.10;;;;;;5019636;28;20539;-61
2021/04/05 10:57:36;;;;;;;6.45;2.42;;;24.20;90.20;;;;;;5038319;28;20113;-58
2021/04/05 11:00:28;;;;;;;3.85;2.05;;;24.20;90.20;;;;;;5036940;28;20034;-63
2021/04/05 11:03:14;;;;;;;4.25;2.20;;;24.20;90.20;;;;;;5020454;28;20026;-63
2021/04/05 11:05:43;;;;;;;5.80;2.33;;;24.20;90.10;;;;;;5017561;28;20092;-63
2021/04/05 11:08:17;;;;;;;4.97;2.63;;;24.20;90.10;;;;;;5018404;28;20025;-61
2021/04/05 11:10:46;;;;;;;5.80;2.35;;;24.20;90.10;;;;;;5025048;28;20036;-61
2021/04/05 11:13:20;;;;;;;4.53;2.40;;;24.20;90.00;;;;;;5038060;28;20025;-64
2021/04/05 11:15:50;;;;;;;4.53;2.20;;;24.20;90.10;;;;;;5041564;28;20480;-63
2021/04/05 11:18:21;;;;;;;4.40;2.25;;;24.20;90.10;;;;;;5039791;28;20479;-65
2021/04/05 11:20:50;;;;;;;;;;;24.20;90.10;;;;;;5038207;28;20032;-60
2021/04/05 11:23:21;;;;;;;4.40;2.42;;;24.20;90.00;;;;;;5050077;28;20377;-61
2021/04/05 11:25:58;;;;;;;5.70;2.70;;;24.20;90.00;;;;;;5042154;28;20041;-63
2021/04/05 11:28:27;;;;;;;4.07;2.45;;;24.20;90.00;;;;;;5041142;28;20024;-65
2021/04/05 11:31:19;;;;;;;2.42;1.95;;;24.20;90.00;;;;;;5045444;28;20036;-61
2021/04/05 11:34:00;;;;;;;4.30;2.17;;;24.20;89.90;;;;;;5031413;28;20033;-60
2021/04/05 11:36:57;;;;;;;6.45;2.78;;;24.20;90.00;;;;;;5045343;28;20039;-57
2021/04/05 11:39:32;;;;;;;4.80;2.30;;;24.10;90.00;;;;;;5039685;28;20110;-63
2021/04/05 11:42:04;;;;;;;5.72;2.60;;;24.10;90.00;;;;;;5044889;28;20049;-62
2021/04/05 11:44:53;;;;;;;4.15;2.15;;;24.10;90.00;;;;;;5043093;28;20031;-65
2021/04/05 11:47:24;;;;;;;4.93;2.58;;;24.10;89.90;;;;;;5034133;28;20044;-59
2021/04/05 11:49:52;;;;;;;2.67;1.80;;;24.10;89.80;;;;;;5058488;28;20061;-63
2021/04/05 11:52:32;;;;;;;3.92;3.10;;;24.10;89.80;;;;;;5052219;28;20033;-58
2021/04/05 11:55:04;;;;;;;3.67;2.20;;;24.10;89.80;;;;;;5051826;28;20056;-70
2021/04/05 11:57:56;;;;;;;4.57;2.15;;;24.00;89.90;;;;;;5052004;28;20017;-58
2021/04/05 12:00:31;;;;;;;;;;;24.00;89.90;;;;;;5052745;28;20390;-64
2021/04/05 12:03:12;;;;;;;5.28;2.40;;;24.00;89.70;;;;;;5051864;28;19965;-62
2021/04/05 12:05:55;;;;;;;6.88;2.75;;;24.00;89.90;;;;;;5051851;28;20087;-58
2021/04/05 12:08:47;;;;;;;4.15;2.42;;;24.00;89.80;;;;;;5052106;28;20033;-63
2021/04/05 12:11:16;;;;;;;9.60;2.72;;;23.90;89.90;;;;;;5041252;28;20046;-61
2021/04/05 12:13:47;;;;;;;3.05;2.05;;;23.90;90.00;;;;;;5050376;28;20029;-66
2021/04/05 12:16:20;;;;;;;3.42;2.03;;;23.90;90.10;;;;;;5052046;28;20036;-66
2021/04/05 12:18:52;;;;;;;5.65;2.47;;;23.80;90.10;;;;;;5051674;28;20029;-65
2021/04/05 12:21:19;;;;;;;;;;;23.90;90.10;;;;;;5051898;28;20040;-63
2021/04/05 12:23:58;;;;;;;5.90;2.33;;;23.80;90.10;;;;;;5051418;28;19908;-65
2021/04/05 12:26:30;;;;;;;3.80;2.33;;;23.80;90.20;;;;;;5051003;28;20048;-69
2021/04/05 12:29:11;;;;;;;3.25;1.83;;;23.70;90.30;;;;;;5051547;28;20025;-69
2021/04/05 12:31:41;;;;;;;4.95;2.53;;;23.80;90.30;;;;;;5051478;28;20033;-66
2021/04/05 12:34:13;;;;;;;7.70;2.63;;;23.70;90.30;;;;;;5051872;28;20036;-65
2021/04/05 12:36:42;;;;;;;3.15;2.08;;;23.70;90.40;;;;;;5051111;28;20509;-58
2021/04/05 12:39:12;;;;;;;3.40;2.00;;;23.70;90.40;;;;;;5049006;28;20052;-63
2021/04/05 12:41:42;;;;;;;8.77;2.75;;;23.70;90.40;;;;;;5051064;28;20081;-59
2021/04/05 12:44:14;;;;;;;5.05;2.55;;;23.70;90.30;;;;;;5051185;28;20040;-58
2021/04/05 12:46:48;;;;;;;6.65;2.95;;;23.60;90.40;;;;;;5051223;28;20056;-57
2021/04/05 12:49:26;;;;;;;4.63;2.95;;;23.70;90.40;;;;;;5051414;28;20035;-63
2021/04/05 12:52:08;;;;;;;7.03;3.22;;;23.70;90.50;;;;;;5050574;28;20487;-62
2021/04/05 12:54:42;;;;;;;4.68;2.53;;;23.60;90.40;;;;;;5051329;28;20490;-70
2021/04/05 12:57:11;;;;;;;4.35;3.10;;;23.60;90.50;;;;;;5050920;28;20040;-59
2021/04/05 12:59:40;;;;;;;4.47;2.20;;;23.60;90.40;;;;;;5050662;28;20029;-60
2021/04/05 13:02:16;;;;;;;5.40;2.97;;;23.60;90.50;;;;;;5050890;28;20029;-65
2021/04/05 13:05:03;;;;;;;4.68;2.50;;;23.60;90.50;;;;;;5050775;28;20107;-68
2021/04/05 13:08:02;;;;;;;5.28;2.40;;;23.50;90.50;;;;;;5050934;28;20029;-66
2021/04/05 13:10:39;;;;;;;6.20;2.75;;;23.50;90.50;;;;;;5050646;28;20080;-68
2021/04/05 13:13:13;;;;;;;3.42;2.00;;;23.60;90.50;;;;;;5050885;28;20036;-66
2021/04/05 13:16:01;;;;;;;6.53;2.40;;;23.50;90.50;;;;;;5051054;28;20101;-68
2021/04/05 13:18:35;;;;;;;7.05;3.00;;;23.50;90.50;;;;;;5050743;28;20036;-68
2021/04/05 13:21:05;;;;;;;8.15;3.45;;;23.50;90.50;;;;;;5050693;28;20599;-68
2021/04/05 13:23:39;;;;;;;4.47;2.58;;;23.40;90.50;;;;;;5050644;28;20129;-68
2021/04/05 13:26:11;;;;;;;6.38;2.60;;;23.40;90.60;;;;;;5050495;28;20043;-69
2021/04/05 13:28:41;;;;;;;4.47;2.47;;;23.40;90.60;;;;;;5050620;28;20021;-60
2021/04/05 13:31:10;;;;;;;4.93;2.72;;;23.40;90.70;;;;;;5050634;28;20040;-58
2021/04/05 13:33:43;;;;;;;7.53;2.50;;;23.40;90.70;;;;;;5050422;28;20048;-62
2021/04/05 13:36:16;;;;;;;8.30;3.35;;;23.40;90.70;;;;;;5050611;28;20428;-62
2021/04/05 13:38:57;;;;;;;7.93;3.15;;;23.40;90.80;;;;;;5035619;28;20033;-59
2021/04/05 13:41:39;;;;;;;6.40;2.33;;;23.40;90.80;;;;;;5037710;28;20041;-60
2021/04/05 13:44:16;;;;;;;;;;;23.40;90.80;;;;;;5040909;28;20811;-62
2021/04/05 13:46:48;;;;;;;4.40;2.10;;;23.40;90.80;;;;;;5038286;28;20449;-59
2021/04/05 13:49:31;;;;;;;4.32;2.22;;;23.30;90.80;;;;;;5042216;28;20066;-59
2021/04/05 13:52:00;;;;;;;6.55;2.80;;;23.40;90.90;;;;;;5048719;28;20082;-58
2021/04/05 13:54:30;;;;;;;5.35;2.47;;;23.30;90.80;;;;;;5043916;28;20025;-63
2021/04/05 13:57:10;;;;;;;4.45;2.50;;;23.30;90.80;;;;;;5056110;28;20037;-61
2021/04/05 13:59:37;;;;;;;5.55;2.50;;;23.40;90.80;;;;;;5062411;28;20479;-59
2021/04/05 14:02:08;;;;;;;6.88;2.88;;;23.30;90.80;;;;;;5059718;28;20367;-56
2021/04/05 14:04:45;;;;;;;5.83;2.50;;;23.40;90.90;;;;;;5039155;28;20039;-60
2021/04/05 14:07:13;;;;;;;4.60;2.28;;;23.30;90.90;;;;;;5039833;28;20124;-59
2021/04/05 14:09:42;;;;;;;5.55;2.72;;;23.40;90.90;;;;;;5042471;28;20025;-56
2021/04/05 14:12:12;;;;;;;5.30;2.20;;;23.30;90.80;;;;;;5037618;28;20056;-62
2021/04/05 14:14:40;;;;;;;5.38;2.40;;;23.30;90.80;;;;;;5034495;28;20095;-65
2021/04/05 14:17:34;;;;;;;8.77;2.70;;;23.30;90.80;;;;;;5027345;28;20124;-60
2021/04/05 14:20:17;;;;;;;3.58;2.00;;;23.30;90.90;;;;;;5040400;28;20044;-58
2021/04/05 14:23:00;;;;;;;3.88;1.95;;;23.30;90.90;;;;;;5018993;28;20026;-63
2021/04/05 14:25:30;;;;;;;5.55;2.70;;;23.30;90.80;;;;;;5041428;28;20083;-63
2021/04/05 14:28:47;;;;;;;8.27;2.70;;;23.30;90.90;;;;;;5036947;28;20108;-59